Time;durP1;ratioP1;P1;durP2;ratioP2;P2;SDS_P1;SDS_P2;PMS_P1;PMS_P2;Temp;Humidity;BMP_temperature;BMP_pressure;BME280_temperature;BME280_humidity;BME280_pressure;Samples;Min_cycle;Max_cycle;Signal;HPM_P1;HPM_P2
2021/09/07 00:00:36;;;;;;;;;14.25;11.50;;;;;22.70;53.35;101937.09;5092027;27;45433;-79
2021/09/07 00:03:02;;;;;;;;;11.75;11.00;;;;;22.70;53.09;101948.69;5092626;27;45506;-79
2021/09/07 00:05:27;;;;;;;;;8.75;8.75;;;;;22.71;52.98;101954.88;5091485;27;45452;-80
2021/09/07 00:07:53;;;;;;;;;13.00;9.00;;;;;22.67;53.68;101943.56;5093689;27;46201;-80
2021/09/07 00:10:18;;;;;;;;;11.75;10.00;;;;;22.63;53.49;101952.78;5095576;27;53599;-80
2021/09/07 00:12:43;;;;;;;;;13.50;11.75;;;;;22.56;53.67;101944.38;5093226;27;45619;-80
2021/09/07 00:15:12;;;;;;;;;9.25;9.25;;;;;22.55;53.43;101950.69;5094039;27;45453;-80
2021/09/07 00:17:38;;;;;;;;;11.75;9.25;;;;;22.52;53.66;101950.06;5093263;27;45447;-80
2021/09/07 00:20:06;;;;;;;;;15.25;12.25;;;;;22.47;53.92;101937.00;5093110;27;45981;-80
2021/09/07 00:22:32;;;;;;;;;13.75;11.00;;;;;22.42;54.16;101933.81;5096561;27;45319;-80
2021/09/07 00:24:57;;;;;;;;;10.00;10.00;;;;;22.40;54.05;101938.44;5093538;27;45521;-80
2021/09/07 00:27:22;;;;;;;;;15.75;14.00;;;;;22.31;53.79;101933.75;5092368;27;46627;-80
2021/09/07 00:29:48;;;;;;;;;10.75;10.00;;;;;22.37;54.06;101944.88;5093059;27;45846;-80
2021/09/07 00:32:13;;;;;;;;;12.50;9.00;;;;;22.29;54.06;101946.38;5092269;27;45432;-80
2021/09/07 00:34:39;;;;;;;;;14.00;10.00;;;;;22.26;54.26;101943.94;5094610;27;45493;-80
2021/09/07 00:37:04;;;;;;;;;10.25;10.00;;;;;22.19;54.58;101931.97;5092699;27;45911;-80
2021/09/07 00:39:29;;;;;;;;;15.75;11.00;;;;;22.16;54.39;101935.72;5093686;27;45722;-80
2021/09/07 00:41:55;;;;;;;;;10.50;9.00;;;;;22.19;54.24;101945.38;5091672;27;45499;-80
2021/09/07 00:44:25;;;;;;;;;17.50;11.75;;;;;22.07;54.57;101923.81;5093474;27;45555;-80
2021/09/07 00:46:54;;;;;;;;;11.00;9.75;;;;;22.11;54.96;101929.84;5092915;27;46100;-80
2021/09/07 00:49:20;;;;;;;;;8.50;6.75;;;;;22.05;55.05;101922.22;5093212;27;45716;-80
2021/09/07 00:51:48;;;;;;;;;9.75;8.75;;;;;22.06;54.97;101921.25;5092641;27;45559;-80
2021/09/07 00:54:15;;;;;;;;;9.25;9.00;;;;;22.07;54.74;101925.66;5092856;27;45708;-80
2021/09/07 00:56:42;;;;;;;;;9.00;9.00;;;;;22.03;54.95;101935.75;5092345;27;46224;-80
2021/09/07 00:59:09;;;;;;;;;9.50;9.25;;;;;21.99;54.76;101925.38;5092585;27;45908;-80
2021/09/07 01:01:35;;;;;;;;;9.25;7.50;;;;;21.97;54.84;101916.56;5094943;27;45596;-80
2021/09/07 01:04:01;;;;;;;;;11.25;10.00;;;;;21.91;54.99;101920.53;5093189;27;45445;-80
2021/09/07 01:06:27;;;;;;;;;14.00;11.75;;;;;21.88;54.98;101913.59;5088397;27;48039;-80
2021/09/07 01:08:54;;;;;;;;;13.75;10.50;;;;;21.86;55.25;101917.34;5092497;27;45404;-80
2021/09/07 01:11:19;;;;;;;;;13.25;12.75;;;;;21.66;55.55;101881.31;5090819;27;45577;-80
2021/09/07 01:13:46;;;;;;;;;11.25;9.00;;;;;21.83;55.79;101906.88;5090688;27;45817;-80
2021/09/07 01:16:11;;;;;;;;;9.75;9.00;;;;;21.78;55.37;101901.00;5094442;27;46177;-81
2021/09/07 01:18:37;;;;;;;;;11.00;9.00;;;;;21.79;55.55;101902.69;5091617;27;45395;-80
2021/09/07 01:21:09;;;;;;;;;11.50;9.00;;;;;21.73;55.87;101887.09;5091637;27;45358;-80
2021/09/07 01:23:34;;;;;;;;;10.50;10.00;;;;;21.78;55.60;101903.66;5093235;27;45409;-80
2021/09/07 01:25:59;;;;;;;;;14.00;10.75;;;;;21.73;56.20;101893.28;5093100;27;45495;-80
2021/09/07 01:28:25;;;;;;;;;10.00;8.00;;;;;21.72;56.59;101901.44;5093691;27;46155;-80
2021/09/07 01:30:50;;;;;;;;;13.00;11.50;;;;;21.67;56.42;101895.56;5082453;27;45631;-81
2021/09/07 01:33:16;;;;;;;;;11.50;9.75;;;;;21.68;56.45;101898.13;5092975;27;45525;-80
2021/09/07 01:35:41;;;;;;;;;13.25;11.75;;;;;21.60;56.76;101881.75;5092572;27;45582;-80
2021/09/07 01:38:06;;;;;;;;;9.00;9.00;;;;;21.60;56.49;101887.94;5092605;27;56893;-80
2021/09/07 01:40:32;;;;;;;;;11.75;10.00;;;;;21.56;56.36;101883.81;5094648;27;45502;-80
2021/09/07 01:42:57;;;;;;;;;13.00;10.50;;;;;21.47;56.36;101865.72;5093103;27;45571;-80
2021/09/07 01:45:22;;;;;;;;;9.25;9.25;;;;;21.49;56.29;101873.63;5091619;27;46034;-80
2021/09/07 01:47:50;;;;;;;;;11.50;11.00;;;;;21.51;56.41;101872.56;5094528;27;45639;-80
2021/09/07 01:50:17;;;;;;;;;9.00;8.75;;;;;21.52;56.56;101879.63;5097491;27;45438;-80
2021/09/07 01:52:43;;;;;;;;;14.25;11.00;;;;;21.53;56.62;101875.13;5098701;27;45492;-80
2021/09/07 01:55:09;;;;;;;;;11.00;10.25;;;;;21.51;56.59;101883.28;5095246;27;45510;-80
2021/09/07 01:57:34;;;;;;;;;10.50;9.75;;;;;21.40;56.56;101867.09;5095680;27;45606;-80
2021/09/07 01:59:59;;;;;;;;;16.00;11.00;;;;;21.48;56.90;101883.47;5093501;27;45769;-80
2021/09/07 02:02:24;;;;;;;;;14.00;9.75;;;;;21.44;56.74;101876.63;5095791;27;45355;-80
2021/09/07 02:04:50;;;;;;;;;11.75;11.50;;;;;21.38;56.78;101877.06;5096941;27;46110;-80
2021/09/07 02:07:16;;;;;;;;;9.00;9.00;;;;;21.39;56.84;101883.28;5091752;27;45545;-80
2021/09/07 02:09:41;;;;;;;;;10.75;9.50;;;;;21.40;57.07;101888.50;5093567;27;45906;-80
2021/09/07 02:12:07;;;;;;;;;11.75;8.00;;;;;21.28;57.37;101870.63;5095778;27;45473;-80
2021/09/07 02:14:33;;;;;;;;;11.00;10.00;;;;;21.27;57.07;101879.59;5094710;27;47945;-80
2021/09/07 02:16:58;;;;;;;;;12.50;12.00;;;;;21.25;57.39;101881.53;5095774;27;45445;-80
2021/09/07 02:19:23;;;;;;;;;12.25;10.25;;;;;21.18;57.24;101881.09;5098121;27;45503;-80
2021/09/07 02:21:49;;;;;;;;;14.75;11.25;;;;;21.23;57.92;101888.81;5092349;27;45524;-80
2021/09/07 02:24:14;;;;;;;;;9.25;9.00;;;;;21.18;57.74;101881.09;5095891;27;46083;-80
2021/09/07 02:26:41;;;;;;;;;13.25;11.75;;;;;21.19;57.79;101881.94;5093841;27;45384;-79
2021/09/07 02:29:06;;;;;;;;;11.75;11.75;;;;;21.15;58.08;101883.16;5095316;27;45374;-79
2021/09/07 02:31:31;;;;;;;;;12.75;9.25;;;;;21.04;57.66;101874.06;5097077;27;45501;-79
2021/09/07 02:33:57;;;;;;;;;14.00;10.25;;;;;21.05;57.47;101875.75;5095075;27;45507;-79
2021/09/07 02:36:24;;;;;;;;;15.00;10.75;;;;;21.07;58.07;101871.16;5095412;27;45323;-79
2021/09/07 02:38:49;;;;;;;;;16.50;13.25;;;;;21.06;58.05;101874.78;5094193;27;45708;-79
2021/09/07 02:41:15;;;;;;;;;11.75;10.00;;;;;21.04;58.24;101868.72;5095253;27;45452;-79
2021/09/07 02:43:40;;;;;;;;;12.25;10.50;;;;;20.99;58.15;101864.66;5092334;27;46700;-79
2021/09/07 02:46:06;;;;;;;;;10.50;10.00;;;;;20.94;58.42;101856.09;5093961;27;45515;-79
2021/09/07 02:48:31;;;;;;;;;13.00;10.50;;;;;20.98;58.58;101857.56;5095568;27;45545;-79
2021/09/07 02:50:56;;;;;;;;;14.00;11.00;;;;;20.91;58.70;101849.13;5093324;27;45931;-79
2021/09/07 02:53:22;;;;;;;;;12.75;12.75;;;;;20.89;58.42;101852.88;5095045;27;45452;-79
2021/09/07 02:55:47;;;;;;;;;15.00;13.25;;;;;20.73;59.20;101832.53;5095499;27;45533;-79
2021/09/07 02:58:12;;;;;;;;;15.00;12.00;;;;;20.85;58.75;101849.53;5093424;27;45271;-79
2021/09/07 03:00:37;;;;;;;;;12.50;10.00;;;;;20.88;59.07;101849.34;5094394;27;45467;-79
2021/09/07 03:03:03;;;;;;;;;16.50;10.75;;;;;20.81;58.71;101843.53;5094905;27;45783;-79
2021/09/07 03:05:28;;;;;;;;;14.75;14.00;;;;;20.80;58.74;101849.84;5093032;27;45614;-79
2021/09/07 03:07:54;;;;;;;;;15.50;11.75;;;;;20.70;59.13;101823.88;5094946;27;45452;-79
2021/09/07 03:10:19;;;;;;;;;12.25;11.50;;;;;20.75;59.22;101835.09;5094611;27;45425;-79
2021/09/07 03:12:44;;;;;;;;;14.50;10.25;;;;;20.68;59.60;101829.34;5094229;27;45921;-79
2021/09/07 03:15:10;;;;;;;;;14.50;10.50;;;;;20.69;59.17;101825.69;5094706;27;46678;-79
2021/09/07 03:17:35;;;;;;;;;15.75;12.25;;;;;20.65;59.67;101823.34;5093529;27;45596;-79
2021/09/07 03:20:01;;;;;;;;;14.75;14.75;;;;;20.73;59.31;101834.38;5095093;27;45575;-79
2021/09/07 03:22:29;;;;;;;;;15.75;14.00;;;;;20.69;59.88;101835.53;5094765;27;45522;-80
2021/09/07 03:24:55;;;;;;;;;15.00;13.50;;;;;20.67;59.42;101840.94;5093009;27;45366;-79
2021/09/07 03:27:20;;;;;;;;;12.50;11.00;;;;;20.64;60.11;101830.50;5092623;27;45585;-80
2021/09/07 03:29:45;;;;;;;;;7.25;7.00;;;;;20.43;60.12;101808.72;5094298;27;45306;-79
2021/09/07 03:32:11;;;;;;;;;13.00;12.75;;;;;20.50;60.01;101823.41;5095607;27;45451;-79
2021/09/07 03:34:36;;;;;;;;;14.25;13.75;;;;;20.49;60.74;101832.38;5095937;27;45798;-79
2021/09/07 03:37:01;;;;;;;;;17.00;13.00;;;;;20.45;60.54;101827.31;5092326;27;46459;-79
2021/09/07 03:39:27;;;;;;;;;14.50;14.25;;;;;20.46;60.29;101821.91;5095518;27;45569;-79
2021/09/07 03:41:52;;;;;;;;;16.75;13.00;;;;;20.40;60.29;101829.44;5091673;27;46147;-80
2021/09/07 03:44:17;;;;;;;;;17.75;13.25;;;;;20.39;60.35;101823.25;5093401;27;45266;-80
2021/09/07 03:46:43;;;;;;;;;17.50;9.50;;;;;20.39;60.89;101820.56;5094485;27;45461;-80
2021/09/07 03:49:08;;;;;;;;;15.00;14.75;;;;;20.36;60.54;101823.47;5096367;27;45548;-80
2021/09/07 03:51:33;;;;;;;;;16.50;13.25;;;;;20.32;61.00;101821.94;5090455;27;55693;-80
2021/09/07 03:53:59;;;;;;;;;21.00;15.00;;;;;20.16;60.80;101803.44;5093724;27;45490;-79
2021/09/07 03:56:27;;;;;;;;;16.00;14.00;;;;;20.20;61.60;101817.41;5093080;27;45268;-79
2021/09/07 03:58:52;;;;;;;;;16.00;13.25;;;;;20.16;61.31;101806.09;5093984;27;45415;-79
2021/09/07 04:01:18;;;;;;;;;17.25;14.75;;;;;20.17;61.40;101809.63;5093509;27;46296;-79
2021/09/07 04:03:43;;;;;;;;;10.50;8.00;;;;;20.15;62.10;101814.19;5093718;27;45362;-79
2021/09/07 04:06:09;;;;;;;;;11.75;11.00;;;;;20.12;62.28;101812.59;5093422;27;49667;-79
2021/09/07 04:08:34;;;;;;;;;13.25;12.25;;;;;20.06;62.41;101808.50;5094141;27;45483;-79
2021/09/07 04:10:59;;;;;;;;;15.50;13.00;;;;;20.10;62.85;101832.31;5092323;27;46069;-80
2021/09/07 04:13:25;;;;;;;;;11.00;10.50;;;;;20.00;63.21;101819.59;5092231;27;47895;-80
2021/09/07 04:15:50;;;;;;;;;17.00;15.50;;;;;19.95;62.76;101813.72;5094454;27;45417;-80
2021/09/07 04:18:16;;;;;;;;;13.50;13.50;;;;;20.02;63.13;101823.00;5093131;27;45433;-80
2021/09/07 04:20:41;;;;;;;;;17.25;13.50;;;;;19.97;63.16;101830.47;5093442;27;45446;-80
2021/09/07 04:23:07;;;;;;;;;16.75;16.25;;;;;19.98;63.64;101832.16;5092284;27;45507;-81
2021/09/07 04:25:32;;;;;;;;;13.75;13.75;;;;;19.90;63.54;101823.81;5096060;27;45562;-81
2021/09/07 04:27:57;;;;;;;;;16.75;16.75;;;;;19.91;63.88;101822.84;5091551;27;45472;-80
2021/09/07 04:30:23;;;;;;;;;17.50;14.50;;;;;19.85;63.98;101825.94;5098046;27;50956;-80
2021/09/07 04:32:48;;;;;;;;;16.00;12.75;;;;;19.86;63.53;101840.13;5093237;27;45437;-81
2021/09/07 04:35:14;;;;;;;;;14.75;14.00;;;;;19.76;64.01;101823.84;5094437;27;45519;-81
2021/09/07 04:37:39;;;;;;;;;16.50;14.75;;;;;19.78;63.52;101835.25;5095417;27;45419;-79
2021/09/07 04:40:06;;;;;;;;;16.25;15.75;;;;;19.70;63.93;101838.44;5092023;27;46052;-79
2021/09/07 04:42:31;;;;;;;;;19.00;15.75;;;;;19.73;64.58;101856.03;5093958;27;45770;-81
2021/09/07 04:44:56;;;;;;;;;17.25;13.75;;;;;19.66;64.21;101858.25;5093521;27;45396;-81
2021/09/07 04:47:22;;;;;;;;;16.75;15.25;;;;;19.59;64.54;101848.03;5091009;27;45527;-81
2021/09/07 04:49:47;;;;;;;;;16.50;15.00;;;;;19.62;64.84;101864.72;5094486;27;46016;-81
2021/09/07 04:52:12;;;;;;;;;17.25;15.00;;;;;19.51;65.02;101851.19;5094317;27;45748;-81
2021/09/07 04:54:38;;;;;;;;;21.00;19.75;;;;;19.46;65.13;101846.13;5092303;27;46901;-82
2021/09/07 04:57:03;;;;;;;;;19.00;16.25;;;;;19.43;65.09;101845.47;5093013;27;45484;-81
2021/09/07 04:59:29;;;;;;;;;15.00;15.00;;;;;19.42;64.85;101852.63;5093011;27;45493;-81
2021/09/07 05:01:54;;;;;;;;;14.00;11.25;;;;;19.45;64.92;101864.91;5091392;27;45582;-81
2021/09/07 05:04:19;;;;;;;;;20.75;19.25;;;;;19.41;65.45;101855.38;5094091;27;45566;-81
2021/09/07 05:06:45;;;;;;;;;15.50;14.75;;;;;19.38;65.68;101858.25;5092701;27;45696;-80
2021/09/07 05:09:10;;;;;;;;;17.25;15.75;;;;;19.35;65.36;101861.94;5090763;27;45482;-80
2021/09/07 05:11:35;;;;;;;;;18.00;15.75;;;;;19.32;65.85;101861.28;5093822;27;45484;-81
2021/09/07 05:14:01;;;;;;;;;16.25;14.50;;;;;19.28;65.48;101858.81;5092981;27;45709;-81
2021/09/07 05:16:26;;;;;;;;;19.25;18.50;;;;;19.12;66.09;101844.72;5094992;27;45719;-81
2021/09/07 05:18:51;;;;;;;;;24.75;17.75;;;;;19.20;66.32;101852.22;5092793;27;49252;-80
2021/09/07 05:21:17;;;;;;;;;21.50;18.50;;;;;19.29;65.70;101872.97;5093806;27;45488;-81
2021/09/07 05:23:42;;;;;;;;;21.25;18.75;;;;;19.15;66.38;101847.16;5091556;27;45733;-80
2021/09/07 05:26:08;;;;;;;;;18.50;17.25;;;;;19.16;66.02;101856.91;5092005;27;45516;-80
2021/09/07 05:28:33;;;;;;;;;24.00;19.25;;;;;19.22;66.44;101866.31;5094249;27;46107;-80
2021/09/07 05:30:58;;;;;;;;;17.75;16.25;;;;;19.21;66.14;101865.47;5091085;27;45469;-80
2021/09/07 05:33:25;;;;;;;;;19.00;17.25;;;;;19.20;66.42;101870.88;5092502;27;45425;-80
2021/09/07 05:35:51;;;;;;;;;17.75;17.50;;;;;19.15;66.18;101859.63;5091176;27;45666;-80
2021/09/07 05:38:16;;;;;;;;;18.50;15.50;;;;;19.15;66.51;101851.66;5091848;27;45527;-79
2021/09/07 05:40:41;;;;;;;;;18.75;17.00;;;;;19.21;66.53;101859.25;5094851;27;45371;-82
2021/09/07 05:43:07;;;;;;;;;19.75;16.75;;;;;19.25;66.04;101864.31;5092833;27;45660;-79
2021/09/07 05:45:32;;;;;;;;;25.50;19.25;;;;;19.25;66.11;101872.31;5088979;27;45514;-81
2021/09/07 05:47:57;;;;;;;;;20.50;18.75;;;;;19.30;66.36;101869.34;5077989;27;45745;-80
2021/09/07 05:50:23;;;;;;;;;20.00;17.25;;;;;19.29;66.87;101867.66;5090812;27;45751;-81
2021/09/07 05:52:48;;;;;;;;;24.25;17.50;;;;;19.25;66.28;101858.13;5093050;27;45325;-81
2021/09/07 05:55:14;;;;;;;;;19.00;16.25;;;;;19.33;66.72;101873.66;5091799;27;45485;-80
2021/09/07 05:57:40;;;;;;;;;18.00;16.25;;;;;19.41;66.62;101880.22;5084176;27;47501;-80
2021/09/07 06:00:08;;;;;;;;;17.75;17.75;;;;;19.45;66.70;101881.75;5082115;27;45441;-81
2021/09/07 06:02:33;;;;;;;;;21.50;16.75;;;;;19.43;66.12;101875.66;5092669;27;45460;-77
2021/09/07 06:04:59;;;;;;;;;22.75;17.50;;;;;19.56;66.18;101887.25;5093235;27;45575;-78
2021/09/07 06:07:24;;;;;;;;;17.25;17.25;;;;;19.60;65.89;101887.13;5093803;27;45863;-79
2021/09/07 06:09:51;;;;;;;;;15.50;14.25;;;;;19.47;64.95;101855.88;5092432;27;45478;-82
2021/09/07 06:12:16;;;;;;;;;20.50;16.50;;;;;19.67;65.33;101872.44;5091640;27;45476;-80
2021/09/07 06:14:42;;;;;;;;;19.50;16.50;;;;;19.62;64.71;101846.06;5090770;27;45412;-76
2021/09/07 06:17:08;;;;;;;;;21.50;17.75;;;;;19.90;64.78;101874.50;5091037;27;46119;-80
2021/09/07 06:19:34;;;;;;;;;22.50;17.25;;;;;19.96;64.18;101874.09;5093821;27;45871;-74
2021/09/07 06:21:59;;;;;;;;;19.75;17.00;;;;;19.91;64.11;101860.22;5090638;27;45542;-81
2021/09/07 06:24:25;;;;;;;;;22.75;17.00;;;;;20.01;64.37;101850.66;5089482;27;45445;-81
2021/09/07 06:26:50;;;;;;;;;23.00;18.00;;;;;20.18;64.07;101865.56;5091565;27;49404;-81
2021/09/07 06:29:16;;;;;;;;;20.25;19.50;;;;;20.26;63.82;101862.41;5090353;27;54085;-80
2021/09/07 06:31:41;;;;;;;;;21.75;17.25;;;;;20.35;63.73;101869.78;5093969;27;45492;-81
2021/09/07 06:34:07;;;;;;;;;18.50;15.75;;;;;20.36;63.53;101854.63;5092106;27;45815;-81
2021/09/07 06:36:32;;;;;;;;;20.00;18.50;;;;;20.56;63.28;101868.38;5091932;27;45593;-80
2021/09/07 06:38:57;;;;;;;;;19.25;16.00;;;;;20.76;62.68;101868.88;5095145;27;45538;-80
2021/09/07 06:41:23;;;;;;;;;16.75;15.75;;;;;20.91;62.75;101873.16;5095223;27;45318;-80
2021/09/07 06:43:48;;;;;;;;;19.00;16.25;;;;;21.12;62.44;101881.53;5096046;27;45482;-80
2021/09/07 06:46:14;;;;;;;;;20.50;16.75;;;;;21.33;61.99;101872.03;5096409;27;45583;-81
2021/09/07 06:48:39;;;;;;;;;16.00;15.00;;;;;21.51;61.30;101864.56;5094871;27;45527;-81
2021/09/07 06:51:04;;;;;;;;;20.50;16.75;;;;;21.93;60.76;101867.78;5094899;27;45311;-80
2021/09/07 06:53:30;;;;;;;;;19.75;14.75;;;;;22.18;60.00;101857.94;5093743;27;45563;-80
2021/09/07 06:55:56;;;;;;;;;16.75;15.75;;;;;22.28;59.63;101883.94;5094421;27;45473;-80
2021/09/07 06:58:22;;;;;;;;;18.75;17.75;;;;;22.35;59.72;101877.16;5097255;27;45379;-80
2021/09/07 07:00:47;;;;;;;;;21.50;17.50;;;;;22.32;59.45;101874.72;5092634;27;45457;-80
2021/09/07 07:03:13;;;;;;;;;19.75;17.25;;;;;22.33;58.79;101881.78;5093276;27;45514;-80
2021/09/07 07:05:38;;;;;;;;;16.75;16.75;;;;;22.31;58.78;101874.84;5094151;27;50671;-80
2021/09/07 07:08:03;;;;;;;;;20.25;18.25;;;;;22.40;58.92;101885.72;5094927;27;45340;-80
2021/09/07 07:10:29;;;;;;;;;17.50;17.50;;;;;22.45;58.52;101884.50;5096268;27;45273;-80
2021/09/07 07:12:54;;;;;;;;;17.50;15.50;;;;;22.47;58.38;101888.78;5094157;27;45370;-80
2021/09/07 07:15:20;;;;;;;;;19.25;17.25;;;;;22.50;58.15;101885.00;5093300;27;51357;-79
2021/09/07 07:17:45;;;;;;;;;21.25;18.00;;;;;22.53;58.15;101891.00;5094224;27;45523;-80
2021/09/07 07:20:11;;;;;;;;;15.25;14.00;;;;;22.37;57.96;101855.63;5093184;27;45290;-81
2021/09/07 07:22:36;;;;;;;;;17.25;17.25;;;;;22.48;57.80;101863.69;5094988;27;45679;-80
2021/09/07 07:25:03;;;;;;;;;16.75;15.75;;;;;22.57;57.62;101876.41;5092765;27;46074;-80
2021/09/07 07:27:28;;;;;;;;;18.25;16.50;;;;;22.73;58.42;101896.69;5094513;27;45715;-80
2021/09/07 07:29:53;;;;;;;;;21.50;16.75;;;;;22.73;58.26;101889.50;5095411;27;45298;-80
2021/09/07 07:32:19;;;;;;;;;18.50;16.25;;;;;22.73;58.24;101876.09;5094665;27;45454;-80
2021/09/07 07:34:44;;;;;;;;;20.25;19.00;;;;;22.89;58.29;101897.25;5095014;27;46005;-80
2021/09/07 07:37:09;;;;;;;;;22.00;19.25;;;;;23.01;57.39;101903.50;5095447;27;45460;-80
2021/09/07 07:39:35;;;;;;;;;19.75;18.25;;;;;23.12;57.45;101912.41;5093429;27;45701;-80
2021/09/07 07:42:01;;;;;;;;;21.00;16.75;;;;;23.24;57.32;101909.78;5093077;27;45360;-80
2021/09/07 07:44:26;;;;;;;;;19.50;15.75;;;;;23.35;56.99;101913.31;5093586;27;46151;-80
2021/09/07 07:46:52;;;;;;;;;21.00;18.25;;;;;23.47;56.84;101905.28;5093094;27;45573;-80
2021/09/07 07:49:17;;;;;;;;;17.50;15.25;;;;;23.46;56.73;101877.59;5088948;27;45651;-80
2021/09/07 07:51:43;;;;;;;;;21.25;19.50;;;;;23.67;55.98;101897.38;5089733;27;45494;-80
2021/09/07 07:54:09;;;;;;;;;17.25;17.25;;;;;23.78;56.14;101901.03;5092981;27;48296;-79
2021/09/07 07:56:37;;;;;;;;;18.00;15.50;;;;;23.87;55.99;101909.22;5093298;27;45614;-81
2021/09/07 07:59:03;;;;;;;;;19.25;15.00;;;;;24.00;55.78;101903.69;5094855;27;45461;-82
2021/09/07 08:01:29;;;;;;;;;20.00;15.50;;;;;24.10;55.64;101909.16;5090989;27;45505;-79
2021/09/07 08:03:54;;;;;;;;;16.75;13.00;;;;;24.20;55.00;101900.22;5092411;27;45535;-80
2021/09/07 08:06:20;;;;;;;;;15.50;13.75;;;;;24.35;54.70;101902.63;5093553;27;45816;-80
2021/09/07 08:08:45;;;;;;;;;12.75;12.75;;;;;24.50;54.50;101903.25;5093489;27;45492;-81
2021/09/07 08:11:10;;;;;;;;;14.25;14.00;;;;;24.65;54.23;101901.97;5092286;27;45385;-80
2021/09/07 08:13:36;;;;;;;;;20.75;16.25;;;;;24.79;53.56;101893.56;5095869;27;45429;-81
2021/09/07 08:16:02;;;;;;;;;12.00;10.50;;;;;24.94;53.42;101881.50;5091764;27;48073;-80
2021/09/07 08:18:27;;;;;;;;;15.00;12.75;;;;;25.31;53.08;101915.16;5091693;27;45522;-81
2021/09/07 08:20:52;;;;;;;;;15.50;13.50;;;;;25.57;52.96;101911.03;5094241;27;45334;-80
2021/09/07 08:23:18;;;;;;;;;15.00;13.00;;;;;26.02;52.60;101905.28;5091670;27;46232;-81
2021/09/07 08:25:43;;;;;;;;;13.25;12.75;;;;;26.35;50.63;101905.91;5085795;27;45350;-82
2021/09/07 08:28:09;;;;;;;;;16.75;15.75;;;;;26.62;50.30;101889.91;5090905;27;47593;-82
2021/09/07 08:30:34;;;;;;;;;17.00;13.50;;;;;27.18;49.59;101905.34;5092764;27;45787;-80
2021/09/07 08:32:59;;;;;;;;;19.50;15.00;;;;;27.93;49.64;101876.50;5091554;27;46036;-81
2021/09/07 08:35:25;;;;;;;;;18.75;15.50;;;;;29.05;46.66;101884.16;5093731;27;45327;-81
2021/09/07 08:37:51;;;;;;;;;16.00;13.00;;;;;29.89;46.99;101896.97;5094915;27;45321;-81
2021/09/07 08:40:16;;;;;;;;;16.50;14.75;;;;;32.55;44.94;101890.56;5093911;27;45475;-81
2021/09/07 08:42:42;;;;;;;;;20.00;14.75;;;;;35.11;40.99;101892.34;5093523;27;45550;-82
2021/09/07 08:45:12;;;;;;;;;13.75;13.75;;;;;36.96;39.49;101893.00;5092990;27;45424;-81
2021/09/07 08:47:37;;;;;;;;;16.00;12.75;;;;;39.56;36.87;101893.88;5092241;27;45456;-80
2021/09/07 08:50:03;;;;;;;;;16.75;13.00;;;;;41.86;33.06;101899.59;5093828;27;45451;-82
2021/09/07 08:52:29;;;;;;;;;19.25;14.25;;;;;43.49;31.11;101892.06;5095576;27;45548;-82
2021/09/07 08:54:54;;;;;;;;;13.50;10.75;;;;;44.61;29.70;101908.19;5092862;27;45659;-82
2021/09/07 08:57:19;;;;;;;;;14.00;11.50;;;;;44.66;28.69;101909.06;5092371;27;45569;-82
2021/09/07 08:59:56;;;;;;;;;13.25;11.00;;;;;44.31;29.33;101901.28;5092082;27;45598;-81
2021/09/07 09:02:22;;;;;;;;;18.75;12.50;;;;;43.84;28.16;101901.06;5092046;27;45730;-81
2021/09/07 09:04:50;;;;;;;;;15.00;13.00;;;;;43.28;28.29;101903.94;5094946;27;45383;-80
2021/09/07 09:07:26;;;;;;;;;12.50;11.50;;;;;42.77;27.45;101905.94;5094612;27;45458;-82
2021/09/07 09:09:52;;;;;;;;;12.50;12.50;;;;;42.11;27.75;101902.84;5094018;27;45470;-82
2021/09/07 09:12:36;;;;;;;;;11.00;9.75;;;;;41.45;27.65;101901.50;5093779;27;45763;-81
2021/09/07 09:15:17;;;;;;;;;11.00;11.00;;;;;41.10;27.49;101907.06;5092793;27;45579;-81
2021/09/07 09:17:43;;;;;;;;;12.25;11.75;;;;;40.84;26.83;101914.72;5092632;27;45297;-79
2021/09/07 09:20:16;;;;;;;;;12.00;12.00;;;;;40.66;27.61;101912.88;5094052;27;45428;-80
2021/09/07 09:23:01;;;;;;;;;10.25;10.25;;;;;40.58;28.55;101907.75;5095617;27;45471;-80
2021/09/07 09:25:40;;;;;;;;;13.75;11.25;;;;;40.52;28.16;101910.63;5095427;27;45350;-81
2021/09/07 09:28:13;;;;;;;;;11.75;11.75;;;;;40.47;28.08;101905.78;5094707;27;45489;-83
2021/09/07 09:30:43;;;;;;;;;11.75;11.25;;;;;40.41;27.19;101910.31;5092991;27;45495;-83
2021/09/07 09:33:12;;;;;;;;;10.75;10.75;;;;;40.30;27.54;101899.25;5090950;27;46308;-81
2021/09/07 09:35:56;;;;;;;;;12.00;10.75;;;;;40.35;27.29;101904.91;5092524;27;45449;-80
2021/09/07 09:38:24;;;;;;;;;9.75;9.00;;;;;40.28;27.20;101898.66;5089342;27;45397;-83
2021/09/07 09:40:54;;;;;;;;;11.50;11.00;;;;;40.22;27.27;101894.09;5093769;27;45402;-83
2021/09/07 09:43:24;;;;;;;;;13.25;10.50;;;;;40.22;27.13;101891.34;5094370;27;46151;-83
2021/09/07 09:45:50;;;;;;;;;9.75;9.75;;;;;40.18;25.71;101894.56;5092451;27;45780;-81
2021/09/07 09:48:28;;;;;;;;;9.00;7.50;;;;;39.91;25.64;101893.25;5093049;27;45571;-81
2021/09/07 09:50:55;;;;;;;;;9.25;9.25;;;;;39.62;26.30;101886.59;5092273;27;45369;-81
2021/09/07 09:53:21;;;;;;;;;10.50;9.75;;;;;39.67;26.04;101890.38;5092622;27;45965;-81
2021/09/07 09:55:48;;;;;;;;;12.25;11.00;;;;;39.77;25.67;101886.22;5092826;27;45611;-82
2021/09/07 09:58:17;;;;;;;;;10.75;10.75;;;;;39.62;23.94;101884.72;5093154;27;45293;-82
2021/09/07 10:00:46;;;;;;;;;9.25;8.50;;;;;39.36;25.00;101874.88;5092237;27;45582;-82
2021/09/07 10:03:13;;;;;;;;;11.00;9.00;;;;;39.35;24.91;101880.59;5092832;27;46003;-82
2021/09/07 10:05:40;;;;;;;;;9.00;8.25;;;;;39.60;25.49;101880.50;5090201;27;45692;-81
2021/09/07 10:08:06;;;;;;;;;15.50;9.25;;;;;39.82;24.44;101875.38;5092795;27;45480;-83
2021/09/07 10:10:32;;;;;;;;;8.25;8.00;;;;;40.02;24.17;101870.41;5098472;27;45347;-81
2021/09/07 10:13:01;;;;;;;;;9.50;9.50;;;;;40.09;24.74;101873.94;5095441;27;46742;-82
2021/09/07 10:21:11;;;;;;;;;11.00;9.00;;;;;40.19;23.93;101862.34;5094895;27;45425;-82
2021/09/07 10:26:18;;;;;;;;;11.00;9.75;;;;;38.91;24.70;101860.53;5081188;27;45628;-82
2021/09/07 10:28:45;;;;;;;;;10.00;9.25;;;;;38.37;25.35;101851.06;5097161;27;45260;-82
2021/09/07 10:31:12;;;;;;;;;13.00;10.50;;;;;38.01;25.69;101851.72;5096054;27;45503;-80
2021/09/07 10:33:38;;;;;;;;;10.00;10.00;;;;;37.95;25.49;101839.69;5097189;27;45594;-81
2021/09/07 10:36:10;;;;;;;;;13.75;10.75;;;;;37.94;25.66;101843.50;5096530;27;45527;-80
2021/09/07 10:38:38;;;;;;;;;11.50;11.50;;;;;37.79;25.47;101840.19;5096121;27;45426;-82
2021/09/07 10:41:03;;;;;;;;;9.50;9.50;;;;;37.54;25.85;101820.94;5095384;27;45455;-81
2021/09/07 10:43:50;;;;;;;;;10.50;9.50;;;;;37.22;26.44;101800.78;5097966;27;45770;-81
2021/09/07 10:46:17;;;;;;;;;12.00;11.25;;;;;37.21;26.36;101832.00;5097095;27;45492;-80
2021/09/07 10:48:43;;;;;;;;;14.00;12.00;;;;;36.85;26.76;101816.88;5094764;27;45446;-81
2021/09/07 10:51:08;;;;;;;;;10.50;9.25;;;;;36.57;27.23;101826.19;5095802;27;45461;-80
2021/09/07 10:53:33;;;;;;;;;11.50;10.75;;;;;36.30;27.07;101819.84;5094272;27;46294;-79
2021/09/07 10:56:22;;;;;;;;;12.50;12.50;;;;;36.02;27.59;101817.31;5095422;27;45341;-82
2021/09/07 10:58:47;;;;;;;;;12.25;10.25;;;;;35.75;27.67;101801.81;5093952;27;45351;-80
2021/09/07 11:01:30;;;;;;;;;11.00;11.00;;;;;35.59;27.72;101803.06;5097631;27;45520;-81
2021/09/07 11:04:31;;;;;;;;;9.00;8.75;;;;;35.47;28.26;101804.69;5094698;27;47673;-81
2021/09/07 11:06:58;;;;;;;;;11.25;10.50;;;;;35.30;28.69;101793.25;5095046;27;45520;-81
2021/09/07 11:09:50;;;;;;;;;11.50;11.50;;;;;35.22;28.66;101790.69;5094249;27;45525;-80
2021/09/07 11:12:27;;;;;;;;;12.75;11.75;;;;;35.04;29.14;101785.78;5094657;27;45445;-81
2021/09/07 11:15:05;;;;;;;;;12.50;11.25;;;;;35.10;28.98;101784.13;5094672;27;45713;-80
2021/09/07 11:17:32;;;;;;;;;10.50;8.75;;;;;35.12;29.36;101765.63;5094353;27;45521;-81